Honolulu, HI (96822)

5:58 AM HST on December 29, 2014 (GMT -1000)
Manoa - Upper Woodlawn | Change Station
CLOSE
Current Station
Personal Weather Station
Location: Honolulu, HI
Elevation: 510 ft
Nearby Weather Stations

Elev 510 ft 21.31 °N, 157.80 °W | Updated 1 minute ago

Partly Cloudy
Partly Cloudy
66.0 °F
Feels Like 66.0 °F
N
0.0
Wind Variable Wind from North
Gusts 0.0 mph

Today
High -- | Low -- °F
--% Chance of Precip.
Yesterday
High -- | Low -- °F
Precip. -- in
7:07 AM 5:59 PM
First Quarter, 60% visible
Pressure 29.93 in
Visibility 10.0 miles
Clouds Few 2800 ft
Dew Point 61 °F
Humidity 83%
Rainfall 0.00 in
Snow Depth Not available.
UV 0.0 out of 12
Pollen Not available.
Air Quality Not available.
Flu Activity Not available.
METAR PHNL 291553Z 32004KT 10SM FEW028 17/14 A2992 RMK AO2 SLP133 T01720144

More Conditions Fewer Conditions

Pressure 29.93 in
Visibility 10.0 miles
Clouds Few 2800 ft
Dew Point 61 °F
Humidity 83%
Rainfall 0.00 in
Snow Depth Not available.
UV 0.0 out of 12
Pollen Not available.
Air Quality Not available.
Flu Activity Not available.
METAR PHNL 291553Z 32004KT 10SM FEW028 17/14 A2992 RMK AO2 SLP133 T01720144

More Conditions Fewer Conditions

10-Day Weather Forecast

Almanac

Astronomy

Dec. 29, 2014 Rise Set
Actual Time
Civil Twilight
Nautical Twilight
Astronomical Twilight
Moon
Length of Visible Light
Length of Day
Tomorrow will be .
, % of the Moon is Illuminated

Today's Extremes

State Highs State Lows

Community

WunderPhotos

Upload Photos

1,781,617 photos uploaded!

WunderBlogs® & News

Nearby

Air Quality

  Air Quality AQ Index Pollutant
Not available.

Snow Depth

Station Depth Elevation

Earthquake Activity

City Distance Mag. Time & Date
Minimum magnitude displayed is 2.5.

Coastal Water Temperatures

Place Temperature

Nearby Weather Stations